Time,TemperatureF,DewpointF,PressureIn,WindDirection,WindDirectionDegrees,WindSpeedMPH,WindSpeedGustMPH,Humidity,HourlyPrecipIn,Conditions,Clouds,dailyrainin,SoftwareType,DateUTC
2013-07-10 00:00:00,73.8,65.1,30.19,North,0,0.0,0.0,74,0.00,,,0.00,WUHU216HW,2013-07-10 05:00:00,
2013-07-10 00:05:00,73.8,65.1,30.19,North,0,0.0,0.0,74,0.00,,,0.00,WUHU216HW,2013-07-10 05:05:00,
2013-07-10 00:30:00,72.7,64.4,30.20,North,0,0.0,0.0,75,0.00,,,0.00,WUHU216HW,2013-07-10 05:30:00,
2013-07-10 00:35:00,72.7,64.4,30.20,North,0,0.0,0.0,75,0.00,,,0.00,WUHU216HW,2013-07-10 05:35:00,
2013-07-10 01:00:00,71.5,63.8,30.21,North,0,0.0,0.0,77,0.00,,,0.00,WUHU216HW,2013-07-10 06:00:00,
2013-07-10 01:05:00,71.5,63.8,30.21,North,0,0.0,0.0,77,0.00,,,0.00,WUHU216HW,2013-07-10 06:05:00,
2013-07-10 01:30:00,70.6,63.4,30.21,North,0,0.0,0.0,78,0.00,,,0.00,WUHU216HW,2013-07-10 06:30:00,
2013-07-10 01:35:00,70.6,63.4,30.21,North,0,0.0,0.0,78,0.00,,,0.00,WUHU216HW,2013-07-10 06:35:00,
2013-07-10 02:00:00,69.5,62.6,30.22,North,0,0.0,0.0,79,0.00,,,0.00,WUHU216HW,2013-07-10 07:00:00,
2013-07-10 02:05:00,69.5,62.6,30.22,North,0,0.0,0.0,79,0.00,,,0.00,WUHU216HW,2013-07-10 07:05:00,
2013-07-10 02:30:00,68.8,62.4,30.23,North,0,0.0,0.0,80,0.00,,,0.00,WUHU216HW,2013-07-10 07:30:00,
2013-07-10 02:35:00,68.8,62.4,30.23,North,0,0.0,0.0,80,0.00,,,0.00,WUHU216HW,2013-07-10 07:35:00,
2013-07-10 02:59:00,67.7,60.2,30.24,North,0,0.0,0.0,77,0.00,,,0.00,WUHU216HW,2013-07-10 07:59:00,
2013-07-10 03:00:00,67.7,60.2,30.24,North,0,0.0,0.0,77,0.00,,,0.00,WUHU216HW,2013-07-10 08:00:00,
2013-07-10 03:05:00,67.7,60.2,30.24,North,0,0.0,0.0,77,0.00,,,0.00,WUHU216HW,2013-07-10 08:05:00,
2013-07-10 03:30:00,66.6,60.0,30.25,North,0,0.0,0.0,79,0.00,,,0.00,WUHU216HW,2013-07-10 08:30:00,
2013-07-10 03:35:00,66.6,60.0,30.25,North,0,0.0,0.0,79,0.00,,,0.00,WUHU216HW,2013-07-10 08:35:00,
2013-07-10 19:59:00,84.6,64.1,30.26,North,0,0.0,0.0,50,0.00,,,0.00,WUHU216HW,2013-07-11 00:59:00,
2013-07-10 20:04:00,84.6,64.1,30.26,North,0,0.0,0.0,50,0.00,,,0.00,WUHU216HW,2013-07-11 01:04:00,
2013-07-10 20:09:00,84.6,64.1,30.26,North,0,0.0,0.0,50,0.00,,,0.00,WUHU216HW,2013-07-11 01:09:00,
2013-07-10 20:29:00,80.5,63.3,30.26,North,0,0.0,0.0,56,0.00,,,0.00,WUHU216HW,2013-07-11 01:29:00,
2013-07-10 20:34:00,80.5,63.3,30.26,North,0,0.0,0.0,56,0.00,,,0.00,WUHU216HW,2013-07-11 01:34:00,
2013-07-10 20:59:00,76.1,62.7,30.26,North,0,0.0,0.0,63,0.00,,,0.00,WUHU216HW,2013-07-11 01:59:00,
2013-07-10 21:04:00,76.1,62.7,30.26,North,0,0.0,0.0,63,0.00,,,0.00,WUHU216HW,2013-07-11 02:04:00,
2013-07-10 22:29:00,69.7,60.9,30.29,North,0,0.0,0.0,74,0.00,,,0.00,WUHU216HW,2013-07-11 03:29:00,
2013-07-10 22:34:00,69.7,60.9,30.29,North,0,0.0,0.0,74,0.00,,,0.00,WUHU216HW,2013-07-11 03:34:00,
2013-07-10 22:59:00,68.9,61.0,30.30,North,0,0.0,0.0,76,0.00,,,0.00,WUHU216HW,2013-07-11 03:59:00,
2013-07-10 23:01:00,68.9,61.0,30.30,North,0,0.0,0.0,76,0.00,,,0.00,WUHU216HW,2013-07-11 04:01:00,
2013-07-10 23:06:00,68.9,61.0,30.30,North,0,0.0,0.0,76,0.00,,,0.00,WUHU216HW,2013-07-11 04:06:00,
2013-07-10 23:29:00,67.9,60.9,30.31,North,0,0.0,0.0,78,0.00,,,0.00,WUHU216HW,2013-07-11 04:29:00,
2013-07-10 23:34:00,67.9,60.9,30.31,North,0,0.0,0.0,78,0.00,,,0.00,WUHU216HW,2013-07-11 04:34:00,
2013-07-10 23:59:00,67.3,61.0,30.31,North,0,0.0,0.0,80,0.00,,,0.00,WUHU216HW,2013-07-11 04:59:00,